Time;durP1;ratioP1;P1;durP2;ratioP2;P2;SDS_P1;SDS_P2;PMS_P1;PMS_P2;Temp;Humidity;BMP_temperature;BMP_pressure;BME280_temperature;BME280_humidity;BME280_pressure;Samples;Min_cycle;Max_cycle;Signal;HPM_P1;HPM_P2
2023/05/29 00:01:18;;;;;;;4.35;2.25;;;;;;;;;;6277774;28;20068;-77
2023/05/29 00:04:21;;;;;;;5.10;2.50;;;;;;;;;;6279888;28;20051;-77
2023/05/29 00:07:23;;;;;;;6.90;3.10;;;;;;;;;;6274942;28;20068;-76
2023/05/29 00:10:25;;;;;;;4.45;2.70;;;;;;;;;;6266599;28;20048;-79
2023/05/29 00:13:26;;;;;;;6.30;3.13;;;;;;;;;;6269018;28;20056;-79
2023/05/29 00:16:29;;;;;;;4.55;2.90;;;;;;;;;;6262613;28;20074;-77
2023/05/29 00:19:31;;;;;;;6.10;2.75;;;;;;;;;;6278935;28;20124;-79
2023/05/29 00:22:32;;;;;;;3.35;2.78;;;;;;;;;;6267949;28;20048;-77
2023/05/29 00:25:34;;;;;;;6.05;2.88;;;;;;;;;;6268247;28;20045;-77
2023/05/29 00:28:36;;;;;;;4.68;2.88;;;;;;;;;;6261096;28;20040;-79
2023/05/29 00:31:38;;;;;;;5.45;2.90;;;;;;;;;;6267541;28;20044;-78
2023/05/29 00:34:39;;;;;;;4.50;2.80;;;;;;;;;;6266062;28;20625;-77
2023/05/29 00:37:41;;;;;;;4.47;2.17;;;;;;;;;;6264240;28;20053;-77
2023/05/29 00:40:43;;;;;;;4.03;2.42;;;;;;;;;;6264646;28;20060;-77
2023/05/29 00:43:45;;;;;;;4.40;2.30;;;;;;;;;;6266172;28;20098;-78
2023/05/29 00:46:49;;;;;;;4.63;2.70;;;;;;;;;;6262448;28;20052;-79
2023/05/29 00:49:51;;;;;;;4.32;2.70;;;;;;;;;;6264321;28;20053;-78
2023/05/29 00:52:54;;;;;;;6.22;2.40;;;;;;;;;;6264390;28;20549;-79
2023/05/29 00:55:55;;;;;;;4.28;2.63;;;;;;;;;;6264327;28;20224;-78
2023/05/29 00:58:57;;;;;;;5.43;2.53;;;;;;;;;;6265971;28;20041;-78
2023/05/29 01:02:02;;;;;;;3.83;2.50;;;;;;;;;;6268880;28;20045;-80
2023/05/29 01:05:05;;;;;;;5.00;2.78;;;;;;;;;;6262700;28;20064;-79
2023/05/29 01:08:07;;;;;;;5.15;2.50;;;;;;;;;;6263635;28;20060;-80
2023/05/29 01:11:24;;;;;;;4.53;2.60;;;;;;;;;;6265445;28;20120;-79
2023/05/29 01:14:53;;;;;;;5.70;2.90;;;;;;;;;;6262920;28;20037;-79
2023/05/29 01:18:01;;;;;;;6.15;2.65;;;;;;;;;;6270889;28;20049;-78
2023/05/29 01:21:14;;;;;;;4.45;2.60;;;;;;;;;;6274554;28;20091;-79
2023/05/29 01:24:48;;;;;;;4.38;2.60;;;;;;;;;;6269259;28;20045;-79
2023/05/29 01:27:51;;;;;;;5.18;2.72;;;;;;;;;;6265841;28;20053;-76
2023/05/29 01:30:56;;;;;;;5.85;2.95;;;;;;;;;;6266458;28;20080;-78
2023/05/29 01:34:02;;;;;;;6.45;2.60;;;;;;;;;;6270893;28;20045;-78
2023/05/29 01:37:04;;;;;;;6.03;2.55;;;;;;;;;;6268766;28;20415;-78
2023/05/29 01:40:06;;;;;;;4.57;2.78;;;;;;;;;;6265078;28;20113;-79
2023/05/29 01:43:09;;;;;;;4.57;2.35;;;;;;;;;;6268851;28;20044;-79
2023/05/29 01:46:12;;;;;;;;;;;;;;;;;;6263414;28;20122;-80
2023/05/29 01:49:16;;;;;;;4.18;3.00;;;;;;;;;;6285383;28;19948;-78
2023/05/29 01:52:18;;;;;;;6.95;3.15;;;;;;;;;;6260955;28;20048;-78
2023/05/29 01:55:20;;;;;;;5.85;3.10;;;;;;;;;;6261709;28;20060;-79
2023/05/29 01:58:23;;;;;;;4.78;2.97;;;;;;;;;;6270220;28;20056;-78
2023/05/29 02:01:25;;;;;;;5.20;2.80;;;;;;;;;;6286717;28;20061;-77
2023/05/29 02:04:26;;;;;;;5.63;2.60;;;;;;;;;;6271269;28;20052;-80
2023/05/29 02:07:29;;;;;;;5.63;3.17;;;;;;;;;;6267596;28;20064;-78
2023/05/29 02:10:31;;;;;;;5.75;2.90;;;;;;;;;;6267817;28;20046;-77
2023/05/29 02:13:34;;;;;;;6.32;2.97;;;;;;;;;;6274589;28;20045;-79
2023/05/29 02:16:35;;;;;;;5.80;3.08;;;;;;;;;;6249914;28;20430;-78
2023/05/29 02:19:37;;;;;;;5.13;2.70;;;;;;;;;;6271098;28;20048;-79
2023/05/29 02:22:39;;;;;;;5.75;3.15;;;;;;;;;;6261485;28;20052;-79
2023/05/29 02:25:41;;;;;;;4.57;3.10;;;;;;;;;;6265707;28;20044;-78
2023/05/29 02:28:43;;;;;;;4.70;3.00;;;;;;;;;;6269114;28;20045;-79
2023/05/29 02:31:45;;;;;;;5.32;2.95;;;;;;;;;;6267157;28;21344;-80
2023/05/29 02:34:46;;;;;;;5.28;3.42;;;;;;;;;;6276062;28;20044;-77
2023/05/29 02:37:49;;;;;;;4.70;2.90;;;;;;;;;;6263765;28;20056;-79
2023/05/29 02:40:52;;;;;;;7.18;3.28;;;;;;;;;;6268263;28;20045;-79
2023/05/29 02:43:54;;;;;;;6.60;3.22;;;;;;;;;;6270701;28;20055;-78
2023/05/29 02:46:56;;;;;;;5.30;3.42;;;;;;;;;;6267790;28;20434;-79
2023/05/29 02:49:58;;;;;;;6.53;3.25;;;;;;;;;;6262617;28;20045;-79
2023/05/29 02:52:59;;;;;;;5.47;3.33;;;;;;;;;;6267078;28;20117;-77
2023/05/29 02:56:01;;;;;;;5.55;3.25;;;;;;;;;;6266127;28;20064;-77
2023/05/29 02:59:04;;;;;;;4.70;2.85;;;;;;;;;;6266996;28;20128;-78
2023/05/29 03:02:06;;;;;;;3.85;2.78;;;;;;;;;;6268671;28;20049;-77
2023/05/29 03:05:09;;;;;;;6.63;3.13;;;;;;;;;;6265696;28;20049;-79
2023/05/29 03:08:11;;;;;;;5.00;3.13;;;;;;;;;;6269494;28;20506;-79
2023/05/29 03:11:13;;;;;;;5.00;2.97;;;;;;;;;;6261460;28;20048;-78
2023/05/29 03:14:15;;;;;;;6.72;3.38;;;;;;;;;;6265773;28;20040;-78
2023/05/29 03:17:19;;;;;;;4.93;3.50;;;;;;;;;;6276657;28;20469;-79
2023/05/29 03:20:20;;;;;;;;;;;;;;;;;;6283604;28;20041;-77
2023/05/29 03:23:25;;;;;;;7.15;3.17;;;;;;;;;;6291510;28;19921;-76
2023/05/29 03:26:29;;;;;;;7.00;3.38;;;;;;;;;;6271267;28;20048;-78
2023/05/29 03:29:33;;;;;;;6.35;4.18;;;;;;;;;;6278561;28;20052;-77
2023/05/29 03:32:36;;;;;;;5.82;3.40;;;;;;;;;;6279737;28;20119;-79
2023/05/29 03:35:38;;;;;;;4.70;2.85;;;;;;;;;;6283383;28;20052;-79
2023/05/29 03:38:40;;;;;;;6.40;3.30;;;;;;;;;;6263632;28;20128;-78
2023/05/29 03:41:42;;;;;;;6.43;3.33;;;;;;;;;;6277152;28;20051;-78
2023/05/29 03:44:44;;;;;;;9.57;3.47;;;;;;;;;;6277107;28;20064;-77
2023/05/29 03:47:46;;;;;;;6.05;3.28;;;;;;;;;;6274025;28;20059;-78
2023/05/29 03:50:49;;;;;;;7.18;4.10;;;;;;;;;;6272494;28;20089;-77
2023/05/29 03:53:57;;;;;;;5.97;3.80;;;;;;;;;;6266593;28;20539;-79
2023/05/29 03:56:59;;;;;;;6.03;3.80;;;;;;;;;;6267347;28;20049;-78
2023/05/29 04:00:02;;;;;;;6.63;3.53;;;;;;;;;;6269001;28;20048;-77
2023/05/29 04:03:14;;;;;;;6.55;3.20;;;;;;;;;;6253599;28;20037;-77
2023/05/29 04:06:16;;;;;;;6.78;3.33;;;;;;;;;;6265478;28;20047;-78
2023/05/29 04:09:18;;;;;;;5.60;3.75;;;;;;;;;;6277721;28;21984;-79
2023/05/29 04:12:20;;;;;;;5.95;3.63;;;;;;;;;;6265574;28;20259;-79
2023/05/29 04:15:24;;;;;;;7.63;3.90;;;;;;;;;;6262998;28;20048;-79
2023/05/29 04:18:25;;;;;;;5.07;3.40;;;;;;;;;;6262387;28;20051;-77
2023/05/29 04:21:27;;;;;;;6.35;3.50;;;;;;;;;;6260771;28;20071;-79
2023/05/29 04:24:31;;;;;;;6.32;3.17;;;;;;;;;;6263253;28;21033;-79
2023/05/29 04:27:37;;;;;;;5.95;3.72;;;;;;;;;;6265788;28;20037;-80
2023/05/29 04:30:41;;;;;;;5.45;3.25;;;;;;;;;;6258719;28;20048;-79
2023/05/29 04:33:45;;;;;;;5.57;3.33;;;;;;;;;;6263125;28;20072;-79
2023/05/29 04:36:47;;;;;;;5.18;3.38;;;;;;;;;;6273054;28;20045;-78
2023/05/29 04:39:51;;;;;;;7.70;3.65;;;;;;;;;;6244769;28;20101;-77
2023/05/29 04:43:00;;;;;;;6.28;3.72;;;;;;;;;;6274579;28;20041;-79
2023/05/29 04:46:07;;;;;;;6.85;3.92;;;;;;;;;;6265150;28;20061;-77
2023/05/29 04:49:12;;;;;;;7.00;3.85;;;;;;;;;;6260725;28;20045;-80
2023/05/29 04:52:15;;;;;;;4.72;3.20;;;;;;;;;;6263804;28;20056;-78
2023/05/29 04:55:17;;;;;;;4.93;3.22;;;;;;;;;;6270784;28;20068;-77
2023/05/29 04:58:19;;;;;;;6.82;3.63;;;;;;;;;;6264986;28;20055;-77
2023/05/29 05:01:23;;;;;;;4.60;3.17;;;;;;;;;;6259684;28;20041;-79
2023/05/29 05:04:25;;;;;;;5.07;3.47;;;;;;;;;;6259778;28;20408;-79
2023/05/29 05:07:28;;;;;;;3.80;2.97;;;;;;;;;;6256712;28;20045;-78
2023/05/29 05:10:30;;;;;;;5.82;3.05;;;;;;;;;;6268878;28;20068;-78
2023/05/29 05:13:31;;;;;;;6.45;3.33;;;;;;;;;;6266499;28;20042;-80
2023/05/29 05:16:33;;;;;;;7.20;3.92;;;;;;;;;;6262023;28;20103;-79
2023/05/29 05:19:36;;;;;;;;;;;;;;;;;;6247169;28;20033;-79
2023/05/29 05:22:38;;;;;;;6.20;3.45;;;;;;;;;;6275214;28;19925;-79
2023/05/29 05:25:40;;;;;;;6.65;4.10;;;;;;;;;;6243753;28;20037;-79
2023/05/29 05:28:42;;;;;;;6.55;3.95;;;;;;;;;;6242108;28;20499;-79
2023/05/29 05:31:46;;;;;;;5.93;3.60;;;;;;;;;;6270795;28;20582;-78
2023/05/29 05:34:48;;;;;;;7.80;3.80;;;;;;;;;;6269004;28;20763;-78
2023/05/29 05:37:50;;;;;;;7.95;3.78;;;;;;;;;;6266184;28;20037;-79
2023/05/29 05:40:52;;;;;;;8.85;3.70;;;;;;;;;;6269002;28;20083;-78
2023/05/29 05:44:00;;;;;;;5.90;3.70;;;;;;;;;;6264230;28;20051;-78
2023/05/29 05:47:12;;;;;;;8.90;4.28;;;;;;;;;;6260785;28;20041;-78
2023/05/29 05:50:14;;;;;;;7.22;3.92;;;;;;;;;;6262365;28;20880;-79
2023/05/29 05:53:17;;;;;;;;;;;;;;;;;;6261847;28;20056;-79
2023/05/29 05:56:19;;;;;;;8.35;3.92;;;;;;;;;;6257486;28;19921;-79
2023/05/29 05:59:21;;;;;;;8.25;3.72;;;;;;;;;;6245783;28;20120;-79
2023/05/29 06:02:22;;;;;;;5.45;3.80;;;;;;;;;;6281485;28;20041;-79
2023/05/29 06:05:25;;;;;;;8.65;3.78;;;;;;;;;;6263654;28;20051;-78
2023/05/29 06:08:27;;;;;;;6.60;3.70;;;;;;;;;;6261678;28;20045;-79
2023/05/29 06:11:29;;;;;;;6.53;3.60;;;;;;;;;;6258033;28;20049;-79
2023/05/29 06:14:31;;;;;;;6.22;4.10;;;;;;;;;;6259449;28;20048;-81
2023/05/29 06:17:33;;;;;;;8.20;4.03;;;;;;;;;;6254222;28;20037;-80
2023/05/29 06:20:37;;;;;;;6.70;3.90;;;;;;;;;;6273560;28;20044;-80
2023/05/29 06:23:41;;;;;;;7.23;3.77;;;;;;;;;;6258447;28;20183;-80
2023/05/29 06:26:44;;;;;;;6.63;3.42;;;;;;;;;;6260706;28;20562;-79
2023/05/29 06:29:47;;;;;;;;;;;;;;;;;;6263074;28;20065;-79
2023/05/29 06:32:48;;;;;;;7.18;3.17;;;;;;;;;;6265967;28;19929;-78
2023/05/29 06:35:50;;;;;;;7.60;3.63;;;;;;;;;;6277716;28;20127;-79
2023/05/29 06:38:53;;;;;;;6.82;3.45;;;;;;;;;;6265789;28;20048;-79
2023/05/29 06:41:56;;;;;;;7.50;3.80;;;;;;;;;;6267751;28;20045;-79
2023/05/29 06:45:01;;;;;;;5.97;3.42;;;;;;;;;;6262168;28;20049;-78
2023/05/29 06:48:05;;;;;;;8.02;3.40;;;;;;;;;;6259014;28;20064;-79
2023/05/29 06:51:11;;;;;;;6.28;3.20;;;;;;;;;;6256442;28;20049;-79
2023/05/29 06:54:28;;;;;;;7.35;3.17;;;;;;;;;;6257732;28;20037;-79
2023/05/29 06:57:30;;;;;;;9.60;4.13;;;;;;;;;;6258692;28;20041;-79
2023/05/29 07:00:32;;;;;;;6.25;3.50;;;;;;;;;;6261140;28;20182;-78
2023/05/29 07:03:53;;;;;;;5.03;3.30;;;;;;;;;;6269769;28;20541;-77
2023/05/29 07:06:55;;;;;;;6.95;3.15;;;;;;;;;;6248251;28;20041;-78
2023/05/29 07:09:58;;;;;;;4.80;3.03;;;;;;;;;;6278223;28;20122;-77
2023/05/29 07:13:00;;;;;;;6.25;3.15;;;;;;;;;;6260710;28;20365;-79
2023/05/29 07:16:01;;;;;;;7.57;3.05;;;;;;;;;;6266421;28;20052;-79
2023/05/29 07:19:18;;;;;;;7.55;3.60;;;;;;;;;;6263140;28;20052;-80
2023/05/29 07:22:24;;;;;;;7.72;3.70;;;;;;;;;;6258096;28;20052;-81
2023/05/29 07:25:26;;;;;;;7.15;3.10;;;;;;;;;;6257407;28;20040;-78
2023/05/29 07:28:28;;;;;;;5.72;3.22;;;;;;;;;;6261562;28;20045;-78
2023/05/29 07:31:30;;;;;;;6.53;3.38;;;;;;;;;;6262838;28;20061;-77
2023/05/29 07:34:32;;;;;;;10.33;3.60;;;;;;;;;;6259587;28;20059;-79
2023/05/29 07:37:34;;;;;;;5.43;3.20;;;;;;;;;;6257977;28;20443;-79
2023/05/29 07:40:36;;;;;;;6.75;3.47;;;;;;;;;;6261084;28;20049;-77
2023/05/29 07:43:51;;;;;;;6.78;3.47;;;;;;;;;;6256278;28;20056;-81
2023/05/29 07:46:53;;;;;;;7.88;3.60;;;;;;;;;;6256554;28;20056;-77
2023/05/29 07:50:10;;;;;;;4.30;2.78;;;;;;;;;;6247392;28;20076;-77
2023/05/29 07:53:12;;;;;;;7.45;3.08;;;;;;;;;;6248916;28;20049;-77
2023/05/29 07:56:14;;;;;;;7.43;3.42;;;;;;;;;;6274970;28;20053;-76
2023/05/29 07:59:16;;;;;;;7.63;3.50;;;;;;;;;;6253694;28;20037;-78
2023/05/29 08:02:18;;;;;;;10.38;3.53;;;;;;;;;;6256878;28;20101;-77
2023/05/29 08:05:49;;;;;;;6.57;3.45;;;;;;;;;;6255009;28;20048;-77
2023/05/29 08:08:52;;;;;;;4.97;3.28;;;;;;;;;;6254721;28;20626;-79
2023/05/29 08:11:55;;;;;;;7.75;3.13;;;;;;;;;;6260333;28;20485;-78
2023/05/29 08:14:58;;;;;;;7.25;3.58;;;;;;;;;;6264760;28;20055;-78
2023/05/29 08:18:01;;;;;;;8.00;3.42;;;;;;;;;;6258386;28;20121;-78
2023/05/29 08:21:02;;;;;;;7.78;3.15;;;;;;;;;;6263135;28;20045;-78
2023/05/29 08:24:05;;;;;;;6.33;3.47;;;;;;;;;;6255779;28;20091;-77
2023/05/29 08:27:06;;;;;;;6.80;3.05;;;;;;;;;;6260082;28;20049;-78
2023/05/29 08:30:09;;;;;;;5.45;3.20;;;;;;;;;;6261669;28;20040;-77
2023/05/29 08:33:10;;;;;;;5.60;3.13;;;;;;;;;;6257359;28;20056;-79
2023/05/29 08:36:12;;;;;;;6.90;3.47;;;;;;;;;;6257809;28;20052;-77
2023/05/29 08:39:14;;;;;;;5.20;3.20;;;;;;;;;;6259896;28;20044;-77
2023/05/29 08:42:29;;;;;;;8.80;3.35;;;;;;;;;;6258451;28;20509;-79
2023/05/29 08:45:33;;;;;;;5.47;3.35;;;;;;;;;;6254086;28;20284;-79
2023/05/29 08:48:39;;;;;;;5.25;3.10;;;;;;;;;;6256223;28;20404;-78
2023/05/29 08:51:45;;;;;;;6.40;3.33;;;;;;;;;;6256577;28;20041;-80
2023/05/29 08:54:46;;;;;;;4.95;3.15;;;;;;;;;;6265167;28;20045;-78
2023/05/29 08:57:49;;;;;;;5.10;2.87;;;;;;;;;;6256542;28;20045;-78
2023/05/29 09:00:51;;;;;;;;;;;;;;;;;;6255111;28;20447;-75
2023/05/29 09:03:54;;;;;;;5.38;3.20;;;;;;;;;;6247461;28;20631;-76
2023/05/29 09:06:58;;;;;;;5.32;2.95;;;;;;;;;;6247332;28;20045;-76
2023/05/29 09:10:00;;;;;;;6.15;3.30;;;;;;;;;;6248321;28;20080;-75
2023/05/29 09:13:02;;;;;;;5.00;3.10;;;;;;;;;;6236734;28;20183;-79
2023/05/29 09:16:06;;;;;;;4.55;2.92;;;;;;;;;;6259829;28;20038;-77
2023/05/29 09:19:08;;;;;;;4.40;2.83;;;;;;;;;;6249169;28;20124;-77
2023/05/29 09:22:15;;;;;;;3.15;2.70;;;;;;;;;;6252233;28;20045;-78
2023/05/29 09:25:21;;;;;;;4.65;3.00;;;;;;;;;;6254102;28;20121;-78
2023/05/29 09:28:23;;;;;;;6.18;3.17;;;;;;;;;;6247029;28;20057;-76
2023/05/29 09:31:25;;;;;;;;;;;;;;;;;;6251446;28;20049;-77
2023/05/29 09:34:31;;;;;;;6.20;3.10;;;;;;;;;;6252198;28;20386;-77
2023/05/29 09:37:34;;;;;;;6.85;3.15;;;;;;;;;;6251752;28;20060;-77
2023/05/29 09:40:37;;;;;;;7.07;3.33;;;;;;;;;;6260682;28;20072;-80
2023/05/29 09:43:40;;;;;;;7.63;3.20;;;;;;;;;;6258479;28;20471;-78
2023/05/29 09:46:42;;;;;;;5.15;2.97;;;;;;;;;;6247917;28;20037;-78
2023/05/29 09:49:46;;;;;;;6.22;3.00;;;;;;;;;;6262278;28;20103;-79
2023/05/29 09:52:52;;;;;;;6.22;3.20;;;;;;;;;;6260314;28;20052;-77
2023/05/29 09:55:56;;;;;;;3.42;3.00;;;;;;;;;;6254032;28;20045;-79
2023/05/29 09:58:58;;;;;;;4.90;2.78;;;;;;;;;;6272643;28;20052;-78
2023/05/29 10:02:07;;;;;;;5.10;2.92;;;;;;;;;;6256948;28;20479;-78
2023/05/29 10:05:11;;;;;;;6.70;2.80;;;;;;;;;;6257322;28;20056;-78
2023/05/29 10:08:14;;;;;;;5.03;3.13;;;;;;;;;;6255346;28;20068;-78
2023/05/29 10:11:26;;;;;;;4.97;2.78;;;;;;;;;;6254131;28;20044;-77
2023/05/29 10:14:31;;;;;;;6.10;3.30;;;;;;;;;;6253988;28;20408;-77
2023/05/29 10:17:35;;;;;;;4.20;2.88;;;;;;;;;;6256240;28;20056;-76
2023/05/29 10:20:38;;;;;;;5.25;3.20;;;;;;;;;;6244160;28;20180;-78
2023/05/29 10:23:45;;;;;;;6.25;3.20;;;;;;;;;;6256040;28;20118;-77
2023/05/29 10:26:50;;;;;;;5.97;3.60;;;;;;;;;;6239644;28;20075;-79
2023/05/29 10:30:06;;;;;;;6.07;2.95;;;;;;;;;;6251831;28;20124;-79
2023/05/29 10:33:23;;;;;;;5.57;2.97;;;;;;;;;;6254288;28;20048;-78
2023/05/29 10:36:31;;;;;;;5.63;2.90;;;;;;;;;;6250543;28;20044;-77
2023/05/29 10:39:34;;;;;;;6.22;3.17;;;;;;;;;;6248812;28;20041;-77
2023/05/29 10:42:38;;;;;;;3.40;2.63;;;;;;;;;;6256043;28;20037;-78
2023/05/29 10:45:40;;;;;;;4.47;3.10;;;;;;;;;;6262432;28;20053;-76
2023/05/29 10:48:42;;;;;;;5.73;3.00;;;;;;;;;;6258137;28;20044;-78
2023/05/29 10:51:44;;;;;;;3.75;2.90;;;;;;;;;;6256707;28;20045;-78
2023/05/29 10:54:52;;;;;;;5.50;2.90;;;;;;;;;;6251061;28;20053;-78
2023/05/29 10:57:54;;;;;;;6.07;2.90;;;;;;;;;;6257471;28;20053;-75
2023/05/29 11:00:58;;;;;;;4.73;2.90;;;;;;;;;;6251028;28;20053;-79
2023/05/29 11:04:15;;;;;;;5.30;2.92;;;;;;;;;;6266403;28;20446;-78
2023/05/29 11:07:35;;;;;;;5.38;2.72;;;;;;;;;;6257939;28;20106;-77
2023/05/29 11:10:44;;;;;;;5.32;3.05;;;;;;;;;;6257010;28;20128;-78
2023/05/29 11:13:53;;;;;;;6.05;2.97;;;;;;;;;;6257035;28;20148;-78
2023/05/29 11:16:57;;;;;;;7.32;3.08;;;;;;;;;;6253813;28;20045;-78
2023/05/29 11:20:04;;;;;;;5.07;3.38;;;;;;;;;;6260541;28;20044;-78
2023/05/29 11:23:12;;;;;;;4.60;2.58;;;;;;;;;;6259491;28;20113;-78
2023/05/29 11:26:15;;;;;;;5.20;2.92;;;;;;;;;;6262529;28;20040;-77
2023/05/29 11:29:21;;;;;;;3.65;2.50;;;;;;;;;;6258289;28;20049;-78
2023/05/29 11:32:27;;;;;;;6.22;2.85;;;;;;;;;;6260662;28;20048;-80
2023/05/29 11:35:31;;;;;;;5.25;3.10;;;;;;;;;;6255956;28;20045;-81
2023/05/29 11:38:32;;;;;;;6.03;3.08;;;;;;;;;;6273015;28;20044;-78
2023/05/29 11:41:34;;;;;;;4.18;2.60;;;;;;;;;;6256626;28;20045;-77
2023/05/29 11:44:36;;;;;;;4.53;2.75;;;;;;;;;;6252558;28;20052;-77
2023/05/29 11:47:59;;;;;;;4.40;2.47;;;;;;;;;;6253268;28;20048;-78
2023/05/29 11:51:03;;;;;;;6.22;2.65;;;;;;;;;;6254167;28;20041;-79
2023/05/29 11:54:08;;;;;;;4.18;3.00;;;;;;;;;;6250855;28;20526;-78
2023/05/29 11:57:10;;;;;;;5.80;3.00;;;;;;;;;;6263852;28;20061;-78
2023/05/29 12:00:15;;;;;;;4.45;2.80;;;;;;;;;;6251868;28;20041;-78
2023/05/29 12:03:17;;;;;;;3.95;2.55;;;;;;;;;;6248739;28;20053;-78
2023/05/29 12:06:38;;;;;;;5.13;2.60;;;;;;;;;;6251101;28;20048;-79
2023/05/29 12:09:39;;;;;;;4.13;2.70;;;;;;;;;;6252762;28;20094;-78
2023/05/29 12:12:41;;;;;;;5.22;2.92;;;;;;;;;;6252260;28;20052;-78
2023/05/29 12:15:44;;;;;;;3.80;2.65;;;;;;;;;;6252934;28;20064;-79
2023/05/29 12:18:46;;;;;;;4.47;2.60;;;;;;;;;;6257107;28;20033;-78
2023/05/29 12:21:48;;;;;;;5.25;3.10;;;;;;;;;;6253794;28;20146;-79
2023/05/29 12:24:50;;;;;;;4.13;2.67;;;;;;;;;;6252044;28;20051;-81
2023/05/29 12:27:56;;;;;;;4.77;2.70;;;;;;;;;;6254111;28;20080;-81
2023/05/29 12:30:58;;;;;;;4.47;2.63;;;;;;;;;;6249821;28;21067;-81
2023/05/29 12:34:01;;;;;;;4.28;3.05;;;;;;;;;;6248274;28;20041;-81
2023/05/29 12:37:09;;;;;;;4.32;3.00;;;;;;;;;;6257340;28;20659;-80
2023/05/29 12:40:18;;;;;;;4.50;2.90;;;;;;;;;;6249627;28;20053;-80
2023/05/29 12:43:20;;;;;;;10.68;2.75;;;;;;;;;;6251407;28;20052;-79
2023/05/29 12:46:23;;;;;;;3.38;2.38;;;;;;;;;;6253252;28;20048;-79
2023/05/29 12:49:29;;;;;;;5.53;2.95;;;;;;;;;;6252030;28;20057;-78
2023/05/29 12:52:30;;;;;;;5.00;2.97;;;;;;;;;;6250842;28;20523;-78
2023/05/29 12:55:36;;;;;;;4.82;3.13;;;;;;;;;;6252753;28;20491;-77
2023/05/29 12:58:38;;;;;;;4.75;2.78;;;;;;;;;;6250230;28;20060;-78
2023/05/29 13:01:40;;;;;;;3.72;2.58;;;;;;;;;;6252967;28;20139;-78
2023/05/29 13:04:42;;;;;;;3.58;2.60;;;;;;;;;;6255844;28;20037;-77
2023/05/29 13:07:47;;;;;;;4.78;2.80;;;;;;;;;;6251690;28;20067;-77
2023/05/29 13:10:49;;;;;;;5.57;2.88;;;;;;;;;;6261136;28;20053;-79
2023/05/29 13:13:51;;;;;;;4.25;3.05;;;;;;;;;;6262793;28;20526;-75
2023/05/29 13:16:52;;;;;;;4.80;2.83;;;;;;;;;;6262601;28;20045;-78
2023/05/29 13:19:54;;;;;;;5.15;3.13;;;;;;;;;;6262668;28;20182;-77
2023/05/29 13:22:56;;;;;;;6.50;3.05;;;;;;;;;;6251148;28;20051;-75
2023/05/29 13:25:57;;;;;;;4.82;2.80;;;;;;;;;;6253377;28;20036;-74
2023/05/29 13:28:59;;;;;;;4.72;2.83;;;;;;;;;;6246563;28;20044;-75
2023/05/29 13:32:01;;;;;;;4.68;2.97;;;;;;;;;;6257669;28;20056;-76
2023/05/29 13:35:03;;;;;;;4.20;2.70;;;;;;;;;;6263176;28;20045;-74
2023/05/29 13:38:05;;;;;;;;;;;;;;;;;;6256819;28;20127;-75
2023/05/29 13:41:07;;;;;;;5.35;2.67;;;;;;;;;;6255627;28;19931;-74
2023/05/29 13:44:08;;;;;;;5.03;2.75;;;;;;;;;;6249671;28;20060;-74
2023/05/29 13:47:10;;;;;;;4.78;2.90;;;;;;;;;;6250806;28;20056;-75
2023/05/29 13:50:12;;;;;;;3.80;2.72;;;;;;;;;;6251813;28;20045;-74
2023/05/29 13:53:14;;;;;;;6.60;3.80;;;;;;;;;;6255900;28;20491;-74
2023/05/29 13:56:15;;;;;;;3.90;2.83;;;;;;;;;;6257259;28;20120;-76
2023/05/29 13:59:17;;;;;;;6.47;2.90;;;;;;;;;;6261927;28;20037;-76
2023/05/29 14:02:19;;;;;;;4.32;2.70;;;;;;;;;;6256416;28;20048;-73
2023/05/29 14:05:21;;;;;;;4.60;2.75;;;;;;;;;;6253918;28;20049;-74
2023/05/29 14:08:23;;;;;;;4.65;2.83;;;;;;;;;;6249741;28;20050;-75
2023/05/29 14:11:25;;;;;;;3.57;2.77;;;;;;;;;;6253295;28;20084;-77
2023/05/29 14:14:26;;;;;;;5.13;2.92;;;;;;;;;;6263717;28;20452;-76
2023/05/29 14:17:28;;;;;;;5.22;2.97;;;;;;;;;;6249450;28;20041;-75
2023/05/29 14:20:30;;;;;;;6.15;3.10;;;;;;;;;;6250753;28;20048;-75
2023/05/29 14:23:32;;;;;;;3.97;2.63;;;;;;;;;;6251239;28;20506;-75
2023/05/29 14:26:33;;;;;;;3.42;2.70;;;;;;;;;;6252604;28;20045;-76
2023/05/29 14:29:35;;;;;;;5.13;2.75;;;;;;;;;;6243622;28;20064;-74
2023/05/29 14:32:37;;;;;;;4.18;2.47;;;;;;;;;;6254350;28;20588;-73
2023/05/29 14:35:39;;;;;;;4.90;2.90;;;;;;;;;;6247016;28;20507;-76
2023/05/29 14:38:42;;;;;;;4.03;2.63;;;;;;;;;;6247634;28;20427;-76
2023/05/29 14:41:44;;;;;;;5.97;3.20;;;;;;;;;;6249682;28;20048;-75
2023/05/29 14:44:46;;;;;;;5.32;2.67;;;;;;;;;;6247566;28;20415;-75
2023/05/29 14:47:47;;;;;;;4.18;2.83;;;;;;;;;;6257309;28;20055;-76
2023/05/29 14:50:49;;;;;;;4.65;3.53;;;;;;;;;;6250584;28;20060;-76
2023/05/29 14:53:51;;;;;;;6.00;3.03;;;;;;;;;;6250295;28;20058;-76
2023/05/29 14:56:53;;;;;;;4.60;2.85;;;;;;;;;;6257971;28;20440;-75
2023/05/29 14:59:54;;;;;;;6.13;2.63;;;;;;;;;;6251799;28;20100;-77
2023/05/29 15:02:58;;;;;;;3.63;2.33;;;;;;;;;;6246132;28;20743;-76
2023/05/29 15:06:02;;;;;;;5.80;3.05;;;;;;;;;;6238562;28;20045;-73
2023/05/29 15:09:04;;;;;;;4.82;2.97;;;;;;;;;;6245978;28;20048;-73
2023/05/29 15:12:06;;;;;;;5.80;2.83;;;;;;;;;;6250123;28;20037;-78
2023/05/29 15:15:08;;;;;;;;;;;;;;;;;;6253904;28;20047;-74
2023/05/29 15:18:10;;;;;;;5.63;2.63;;;;;;;;;;6251490;28;19929;-74
2023/05/29 15:21:12;;;;;;;7.10;3.40;;;;;;;;;;6245478;28;20048;-77
2023/05/29 15:24:14;;;;;;;5.32;2.78;;;;;;;;;;6245106;28;20093;-76
2023/05/29 15:27:16;;;;;;;6.27;3.10;;;;;;;;;;6252243;28;20060;-78
2023/05/29 15:30:19;;;;;;;5.38;3.22;;;;;;;;;;6252199;28;20049;-78
2023/05/29 15:33:22;;;;;;;3.70;2.65;;;;;;;;;;6247570;28;20126;-79
2023/05/29 15:36:23;;;;;;;5.43;2.72;;;;;;;;;;6242381;28;20056;-77
2023/05/29 15:39:25;;;;;;;6.00;3.13;;;;;;;;;;6247901;28;20438;-76
2023/05/29 15:42:27;;;;;;;5.05;2.90;;;;;;;;;;6245141;28;20102;-77
2023/05/29 15:45:29;;;;;;;4.60;2.90;;;;;;;;;;6244814;28;20053;-76
2023/05/29 15:48:31;;;;;;;5.03;3.00;;;;;;;;;;6249487;28;20049;-76
2023/05/29 15:51:33;;;;;;;6.03;2.97;;;;;;;;;;6245392;28;20045;-77
2023/05/29 15:54:35;;;;;;;6.82;2.90;;;;;;;;;;6246008;28;20041;-76
2023/05/29 15:57:36;;;;;;;7.00;3.00;;;;;;;;;;6247024;28;20045;-76
2023/05/29 16:00:38;;;;;;;5.45;2.97;;;;;;;;;;6242812;28;20546;-76
2023/05/29 16:03:39;;;;;;;4.13;3.20;;;;;;;;;;6242999;28;20095;-76
2023/05/29 16:06:41;;;;;;;4.47;3.07;;;;;;;;;;6248423;28;20122;-77
2023/05/29 16:09:43;;;;;;;6.50;2.70;;;;;;;;;;6249465;28;20057;-77
2023/05/29 16:12:48;;;;;;;7.03;3.40;;;;;;;;;;6250370;28;20048;-77
2023/05/29 16:15:50;;;;;;;5.30;2.85;;;;;;;;;;6245472;28;20091;-77
2023/05/29 16:18:52;;;;;;;5.63;2.70;;;;;;;;;;6257583;28;21290;-76
2023/05/29 16:21:53;;;;;;;4.20;2.42;;;;;;;;;;6257912;28;20183;-75
2023/05/29 16:24:55;;;;;;;4.78;2.63;;;;;;;;;;6251461;28;20052;-78
2023/05/29 16:27:57;;;;;;;4.45;2.88;;;;;;;;;;6244891;28;20107;-75
2023/05/29 16:30:59;;;;;;;5.47;2.80;;;;;;;;;;6249434;28;20048;-77
2023/05/29 16:34:00;;;;;;;5.60;3.22;;;;;;;;;;6243957;28;20044;-76
2023/05/29 16:37:02;;;;;;;7.45;2.90;;;;;;;;;;6245908;28;20051;-76
2023/05/29 16:40:04;;;;;;;5.03;2.63;;;;;;;;;;6246920;28;20048;-76
2023/05/29 16:43:06;;;;;;;5.82;3.30;;;;;;;;;;6259884;28;20068;-80
2023/05/29 16:46:08;;;;;;;8.50;3.03;;;;;;;;;;6258950;28;20045;-78
2023/05/29 16:49:10;;;;;;;5.80;3.25;;;;;;;;;;6257781;28;20052;-76
2023/05/29 16:52:11;;;;;;;6.47;3.20;;;;;;;;;;6254927;28;20522;-76
2023/05/29 16:55:13;;;;;;;5.20;2.90;;;;;;;;;;6251326;28;20515;-76
2023/05/29 16:58:15;;;;;;;5.68;3.03;;;;;;;;;;6259171;28;20084;-78
2023/05/29 17:01:19;;;;;;;4.05;2.40;;;;;;;;;;6259108;28;20048;-79
2023/05/29 17:04:20;;;;;;;5.53;2.37;;;;;;;;;;6259382;28;20087;-77
2023/05/29 17:07:22;;;;;;;4.72;2.90;;;;;;;;;;6256824;28;20661;-78
2023/05/29 17:10:31;;;;;;;6.80;2.88;;;;;;;;;;6243750;28;20044;-78
2023/05/29 17:13:33;;;;;;;7.13;3.00;;;;;;;;;;6257729;28;20053;-78
2023/05/29 17:16:34;;;;;;;7.55;2.72;;;;;;;;;;6256886;28;20052;-79
2023/05/29 17:19:37;;;;;;;6.55;2.60;;;;;;;;;;6256989;28;20048;-80
2023/05/29 17:22:38;;;;;;;5.70;2.92;;;;;;;;;;6259301;28;20041;-79
2023/05/29 17:25:40;;;;;;;7.53;2.97;;;;;;;;;;6256000;28;20056;-78
2023/05/29 17:28:42;;;;;;;8.05;2.90;;;;;;;;;;6253255;28;20495;-79
2023/05/29 17:31:44;;;;;;;6.15;2.70;;;;;;;;;;6250415;28;20462;-77
2023/05/29 17:34:45;;;;;;;5.75;2.72;;;;;;;;;;6248323;28;20045;-76
2023/05/29 17:37:47;;;;;;;5.63;2.63;;;;;;;;;;6254968;28;20048;-79
2023/05/29 17:40:49;;;;;;;5.57;2.60;;;;;;;;;;6258838;28;20084;-78
2023/05/29 17:43:51;;;;;;;7.68;2.50;;;;;;;;;;6254588;28;20053;-78
2023/05/29 17:46:53;;;;;;;5.43;2.75;;;;;;;;;;6256328;28;20064;-78
2023/05/29 17:49:55;;;;;;;6.70;2.92;;;;;;;;;;6252878;28;20415;-78
2023/05/29 17:52:57;;;;;;;5.47;2.47;;;;;;;;;;6258170;28;20104;-77
2023/05/29 17:55:59;;;;;;;5.90;2.23;;;;;;;;;;6256810;28;20079;-76
2023/05/29 17:59:01;;;;;;;4.10;2.65;;;;;;;;;;6256245;28;20494;-77
2023/05/29 18:02:04;;;;;;;6.70;2.50;;;;;;;;;;6263638;28;20071;-78
2023/05/29 18:05:06;;;;;;;6.25;2.63;;;;;;;;;;6261677;28;20057;-77
2023/05/29 18:08:07;;;;;;;6.63;2.80;;;;;;;;;;6258043;28;20044;-77
2023/05/29 18:11:09;;;;;;;5.75;2.78;;;;;;;;;;6273448;28;20056;-81
2023/05/29 18:14:11;;;;;;;5.07;2.30;;;;;;;;;;6253932;28;20049;-79
2023/05/29 18:17:13;;;;;;;5.40;2.60;;;;;;;;;;6259637;28;20124;-80
2023/05/29 18:20:16;;;;;;;4.72;2.38;;;;;;;;;;6255182;28;20177;-80
2023/05/29 18:23:18;;;;;;;5.88;2.30;;;;;;;;;;6254198;28;20049;-79